Terminal Aerodrome Forecast
Issued by NWS

Home | Current Version | Previous Version | Text Only | Print | Product List | Glossary On
Versions: 1 2 3 4 5 6 7 8 9 10 11 12 13 14 15 16 17
081
FTUS46 KSGX 211727
TAFSNA
TAF
KSNA 211727Z 2118/2218 21011G18KT P6SM VCSH SCT025 BKN035
      TEMPO 2118/2120 3SM -SHRA BKN018
     FM220200 VRB06KT P6SM SCT025 BKN035
     FM220900 VRB06KT P6SM BKN025
     FM221600 18007KT P6SM BKN035=

USA.gov is the U.S. government's official web portal to all federal, state and local government web resources and services.